Time;durP1;ratioP1;P1;durP2;ratioP2;P2;SDS_P1;SDS_P2;PMS_P1;PMS_P2;Temp;Humidity;BMP_temperature;BMP_pressure;BME280_temperature;BME280_humidity;BME280_pressure;Samples;Min_cycle;Max_cycle;Signal;HPM_P1;HPM_P2
2022/04/19 00:01:43;;;;;;;8.57;4.95;;;;;;;;;;4994219;28;20046;-78
2022/04/19 00:04:28;;;;;;;11.88;5.38;;;;;;;;;;4993609;28;20042;-79
2022/04/19 00:07:14;;;;;;;9.65;4.60;;;;;;;;;;4994184;28;20046;-79
2022/04/19 00:09:59;;;;;;;24.95;7.50;;;;;;;;;;5004637;28;20046;-78
2022/04/19 00:12:45;;;;;;;33.80;10.05;;;;;;;;;;5000336;28;20042;-78
2022/04/19 00:15:32;;;;;;;53.15;14.07;;;;;;;;;;4994925;28;20042;-77
2022/04/19 00:18:19;;;;;;;14.82;6.70;;;;;;;;;;4993951;28;20042;-77
2022/04/19 00:21:04;;;;;;;20.73;7.90;;;;;;;;;;4994417;28;20046;-77
2022/04/19 00:23:49;;;;;;;21.58;8.73;;;;;;;;;;4994368;28;20050;-77
2022/04/19 00:26:35;;;;;;;18.33;7.85;;;;;;;;;;4993633;28;20042;-79
2022/04/19 00:29:21;;;;;;;20.83;8.02;;;;;;;;;;4994612;28;20043;-79
2022/04/19 00:32:07;;;;;;;18.58;8.75;;;;;;;;;;4985682;28;20050;-79
2022/04/19 00:34:53;;;;;;;17.42;8.20;;;;;;;;;;5000301;28;20054;-78
2022/04/19 00:37:39;;;;;;;14.27;7.63;;;;;;;;;;4994011;28;20047;-77
2022/04/19 00:40:24;;;;;;;20.02;8.43;;;;;;;;;;4985272;28;20046;-79
2022/04/19 00:43:10;;;;;;;14.05;7.80;;;;;;;;;;4985187;28;20054;-79
2022/04/19 00:45:55;;;;;;;22.33;10.00;;;;;;;;;;5000378;28;20420;-79
2022/04/19 00:48:42;;;;;;;24.52;10.80;;;;;;;;;;4998923;28;20050;-79
2022/04/19 00:51:30;;;;;;;30.73;11.48;;;;;;;;;;4985972;28;20050;-78
2022/04/19 00:54:17;;;;;;;25.02;11.00;;;;;;;;;;4995182;28;20057;-79
2022/04/19 00:57:05;;;;;;;25.83;11.13;;;;;;;;;;5002915;28;20039;-78
2022/04/19 00:59:57;;;;;;;20.17;10.75;;;;;;;;;;4989055;28;20038;-79
2022/04/19 01:02:44;;;;;;;15.70;8.02;;;;;;;;;;4988344;28;20054;-78
2022/04/19 01:05:31;;;;;;;11.63;6.40;;;;;;;;;;4989087;28;20046;-79
2022/04/19 01:08:18;;;;;;;22.42;7.00;;;;;;;;;;4988338;28;20034;-79
2022/04/19 01:14:34;;;;;;;11.98;7.00;;;;;;;;;;4910945;29;20059;-79
2022/04/19 01:17:18;;;;;;;16.10;6.88;;;;;;;;;;4917821;29;20052;-78
2022/04/19 01:20:10;;;;;;;15.57;7.35;;;;;;;;;;4990653;28;20046;-79
2022/04/19 01:22:56;;;;;;;18.38;8.82;;;;;;;;;;4988045;28;20042;-79
2022/04/19 01:25:45;;;;;;;19.55;9.55;;;;;;;;;;4976053;28;20042;-78
2022/04/19 01:28:30;;;;;;;20.58;8.88;;;;;;;;;;4988842;28;20046;-79
2022/04/19 01:31:16;;;;;;;14.00;7.80;;;;;;;;;;4988380;28;20054;-79
2022/04/19 01:34:06;;;;;;;13.68;7.28;;;;;;;;;;4988627;28;20484;-79
2022/04/19 01:36:50;;;;;;;15.15;7.72;;;;;;;;;;4988125;28;20039;-80
2022/04/19 01:42:43;;;;;;;12.25;6.47;;;;;;;;;;4988600;28;20054;-80
2022/04/19 01:45:31;;;;;;;12.48;5.97;;;;;;;;;;4988008;28;20042;-79
2022/04/19 01:48:20;;;;;;;15.13;5.82;;;;;;;;;;4988213;28;20046;-79
2022/04/19 01:51:05;;;;;;;11.05;5.78;;;;;;;;;;4996136;28;20042;-79
2022/04/19 01:53:51;;;;;;;13.13;6.13;;;;;;;;;;4987993;28;20046;-79
2022/04/19 01:56:38;;;;;;;10.90;5.93;;;;;;;;;;4988013;28;20050;-79
2022/04/19 01:59:33;;;;;;;20.63;6.50;;;;;;;;;;4987576;28;20038;-79
2022/04/19 02:02:27;;;;;;;21.55;9.77;;;;;;;;;;4988032;28;20046;-79
2022/04/19 02:05:14;;;;;;;15.18;7.30;;;;;;;;;;4986706;28;20477;-79
2022/04/19 02:08:00;;;;;;;15.00;6.40;;;;;;;;;;4996336;28;20050;-79
2022/04/19 02:10:46;;;;;;;14.82;6.82;;;;;;;;;;4996499;28;20046;-79
2022/04/19 02:13:32;;;;;;;15.07;7.20;;;;;;;;;;4986837;28;20054;-80
2022/04/19 02:16:31;;;;;;;13.45;6.47;;;;;;;;;;4988600;28;20058;-79
2022/04/19 02:19:16;;;;;;;18.30;8.18;;;;;;;;;;4987255;28;20238;-79
2022/04/19 02:22:05;;;;;;;19.85;9.88;;;;;;;;;;4987684;28;20046;-79
2022/04/19 02:24:50;;;;;;;12.63;6.38;;;;;;;;;;5001149;28;20046;-80
2022/04/19 02:27:37;;;;;;;16.02;7.20;;;;;;;;;;5011859;28;20038;-79
2022/04/19 02:30:22;;;;;;;14.75;7.18;;;;;;;;;;4990910;28;20427;-79
2022/04/19 02:33:14;;;;;;;10.10;5.07;;;;;;;;;;4986660;28;20500;-79
2022/04/19 02:36:01;;;;;;;9.13;4.93;;;;;;;;;;4987248;28;20399;-79
2022/04/19 02:38:46;;;;;;;11.00;5.50;;;;;;;;;;4995466;28;20046;-79
2022/04/19 02:41:31;;;;;;;11.50;6.72;;;;;;;;;;4986774;28;20050;-79
2022/04/19 02:44:21;;;;;;;12.05;5.57;;;;;;;;;;4980756;28;20050;-79
2022/04/19 02:47:19;;;;;;;10.43;5.75;;;;;;;;;;4986544;28;20058;-79
2022/04/19 02:50:05;;;;;;;17.85;6.53;;;;;;;;;;4987113;28;20054;-78
2022/04/19 02:52:51;;;;;;;12.80;6.32;;;;;;;;;;4987364;28;20038;-80
2022/04/19 02:55:36;;;;;;;13.45;6.57;;;;;;;;;;4986485;28;20038;-79
2022/04/19 02:58:23;;;;;;;10.10;6.03;;;;;;;;;;4986464;28;20038;-79
2022/04/19 03:01:08;;;;;;;10.98;5.75;;;;;;;;;;4986474;28;20046;-79
2022/04/19 03:03:52;;;;;;;10.70;5.43;;;;;;;;;;4986123;28;20043;-79
2022/04/19 03:06:38;;;;;;;9.05;4.53;;;;;;;;;;4973165;28;20043;-78
2022/04/19 03:09:23;;;;;;;7.25;4.90;;;;;;;;;;5001003;28;20046;-79
2022/04/19 03:12:10;;;;;;;7.30;4.80;;;;;;;;;;4986852;28;20050;-79
2022/04/19 03:15:00;;;;;;;7.28;4.60;;;;;;;;;;4986735;28;20034;-80
2022/04/19 03:17:46;;;;;;;8.93;4.95;;;;;;;;;;4985154;28;20046;-79
2022/04/19 03:20:33;;;;;;;7.22;4.45;;;;;;;;;;4986989;28;20054;-79
2022/04/19 03:29:35;;;;;;;10.80;6.82;;;;;;;;;;4986346;28;20068;-78
2022/04/19 03:32:20;;;;;;;18.45;9.25;;;;;;;;;;4985785;28;20058;-78
2022/04/19 03:35:06;;;;;;;18.38;9.48;;;;;;;;;;4986125;28;20042;-78
2022/04/19 03:37:52;;;;;;;13.93;8.20;;;;;;;;;;4993756;28;20054;-79
2022/04/19 03:40:39;;;;;;;13.00;7.53;;;;;;;;;;4986257;28;20403;-78
2022/04/19 03:43:25;;;;;;;18.75;9.77;;;;;;;;;;4984935;28;20050;-78
2022/04/19 03:46:10;;;;;;;16.73;9.07;;;;;;;;;;4985646;28;20054;-78
2022/04/19 03:48:57;;;;;;;13.63;8.25;;;;;;;;;;4986255;28;20058;-78
2022/04/19 03:51:42;;;;;;;15.90;7.75;;;;;;;;;;4994132;28;20042;-78
2022/04/19 03:54:28;;;;;;;11.20;7.57;;;;;;;;;;4985542;28;20042;-78
2022/04/19 03:57:13;;;;;;;12.00;7.63;;;;;;;;;;4985686;28;20039;-78
2022/04/19 03:59:59;;;;;;;14.30;8.20;;;;;;;;;;4985673;28;20038;-78
2022/04/19 04:02:49;;;;;;;14.07;7.90;;;;;;;;;;4985501;28;20396;-79
2022/04/19 04:05:45;;;;;;;13.32;8.65;;;;;;;;;;4985458;28;20054;-78
2022/04/19 04:08:31;;;;;;;17.70;9.10;;;;;;;;;;4985385;28;20046;-79
2022/04/19 04:11:17;;;;;;;15.50;9.23;;;;;;;;;;4993802;28;20503;-80
2022/04/19 04:14:09;;;;;;;17.40;9.77;;;;;;;;;;4972736;28;20050;-79
2022/04/19 04:16:58;;;;;;;15.63;8.35;;;;;;;;;;4986021;28;20050;-80
2022/04/19 04:19:43;;;;;;;12.93;6.53;;;;;;;;;;4985638;28;20050;-79
2022/04/19 04:22:33;;;;;;;10.98;6.35;;;;;;;;;;4986004;28;20488;-78
2022/04/19 04:25:20;;;;;;;12.10;6.57;;;;;;;;;;4985827;28;20050;-81
2022/04/19 04:28:06;;;;;;;17.33;8.15;;;;;;;;;;4993424;28;20042;-80
2022/04/19 04:31:02;;;;;;;16.15;7.93;;;;;;;;;;4989562;28;20058;-80
2022/04/19 04:33:48;;;;;;;25.95;9.65;;;;;;;;;;4989221;28;20046;-82
2022/04/19 04:36:34;;;;;;;27.45;10.50;;;;;;;;;;4997573;28;20038;-80
2022/04/19 04:39:19;;;;;;;20.35;8.77;;;;;;;;;;4989317;28;20400;-80
2022/04/19 04:42:25;;;;;;;27.38;9.30;;;;;;;;;;4983194;28;20050;-81
2022/04/19 04:45:14;;;;;;;44.63;12.98;;;;;;;;;;4995944;28;20528;-81
2022/04/19 04:51:09;;;;;;;34.65;11.13;;;;;;;;;;4989150;28;20054;-81
2022/04/19 04:53:55;;;;;;;29.98;11.55;;;;;;;;;;4988912;28;20054;-82
2022/04/19 04:56:44;;;;;;;35.83;19.45;;;;;;;;;;4987329;28;20042;-81
2022/04/19 04:59:31;;;;;;;27.75;14.60;;;;;;;;;;4995826;28;20046;-80
2022/04/19 05:02:17;;;;;;;19.80;10.63;;;;;;;;;;4987220;28;20054;-83
2022/04/19 05:05:02;;;;;;;22.52;11.13;;;;;;;;;;4987115;28;20050;-81
2022/04/19 05:07:48;;;;;;;19.92;9.73;;;;;;;;;;4997193;28;20400;-81
2022/04/19 05:10:34;;;;;;;13.80;8.13;;;;;;;;;;4988474;28;20042;-81
2022/04/19 05:13:26;;;;;;;16.00;7.82;;;;;;;;;;4988712;28;20488;-81
2022/04/19 05:16:12;;;;;;;14.25;8.52;;;;;;;;;;4988946;28;20042;-81
2022/04/19 05:18:58;;;;;;;23.45;12.15;;;;;;;;;;4988394;28;20042;-80
2022/04/19 05:21:44;;;;;;;16.58;10.85;;;;;;;;;;4988357;28;20042;-81
2022/04/19 05:24:30;;;;;;;15.32;8.82;;;;;;;;;;5001829;28;20066;-82
2022/04/19 05:27:16;;;;;;;13.80;7.57;;;;;;;;;;4988538;28;20054;-81
2022/04/19 05:30:04;;;;;;;16.17;7.07;;;;;;;;;;4988701;28;20480;-81
2022/04/19 05:32:49;;;;;;;17.48;8.90;;;;;;;;;;4996000;28;20491;-81
2022/04/19 05:35:35;;;;;;;16.67;7.97;;;;;;;;;;4988434;28;20392;-81
2022/04/19 05:38:20;;;;;;;13.52;7.68;;;;;;;;;;4988121;28;20043;-81
2022/04/19 05:41:06;;;;;;;13.15;7.05;;;;;;;;;;4987369;28;20046;-81
2022/04/19 05:43:51;;;;;;;14.82;6.90;;;;;;;;;;4985813;28;20054;-81
2022/04/19 05:46:38;;;;;;;16.15;8.68;;;;;;;;;;4987860;28;20046;-81
2022/04/19 05:49:23;;;;;;;16.52;9.30;;;;;;;;;;4988048;28;20046;-80
2022/04/19 05:52:10;;;;;;;10.48;6.30;;;;;;;;;;4987973;28;20409;-82
2022/04/19 05:54:56;;;;;;;19.42;5.97;;;;;;;;;;4987505;28;20058;-82
2022/04/19 05:57:41;;;;;;;11.43;6.13;;;;;;;;;;4996089;28;20054;-82
2022/04/19 06:00:28;;;;;;;12.02;6.60;;;;;;;;;;5001273;28;20039;-82
2022/04/19 06:06:18;;;;;;;14.45;7.28;;;;;;;;;;4996483;28;20050;-81
2022/04/19 06:09:07;;;;;;;11.18;6.93;;;;;;;;;;4987977;28;20285;-81
2022/04/19 06:11:52;;;;;;;14.55;6.88;;;;;;;;;;4996305;28;20054;-81
2022/04/19 06:14:38;;;;;;;10.30;6.13;;;;;;;;;;4995179;28;20042;-82
2022/04/19 06:17:27;;;;;;;13.43;6.85;;;;;;;;;;4987803;28;20042;-82
2022/04/19 06:20:13;;;;;;;11.45;7.03;;;;;;;;;;4988849;28;20412;-79
2022/04/19 06:22:59;;;;;;;14.20;6.55;;;;;;;;;;4989004;28;20046;-79
2022/04/19 06:25:45;;;;;;;12.88;7.10;;;;;;;;;;4989230;28;20050;-81
2022/04/19 06:28:31;;;;;;;14.15;6.93;;;;;;;;;;4988785;28;20050;-81
2022/04/19 06:31:34;;;;;;;11.27;6.18;;;;;;;;;;4997515;28;20480;-82
2022/04/19 06:34:35;;;;;;;12.52;7.25;;;;;;;;;;4989078;28;20491;-80
2022/04/19 06:37:30;;;;;;;14.48;7.43;;;;;;;;;;4989055;28;20042;-80
2022/04/19 06:40:25;;;;;;;12.55;6.97;;;;;;;;;;4988167;28;20043;-79
2022/04/19 06:43:09;;;;;;;12.73;6.25;;;;;;;;;;5001007;28;20038;-80
2022/04/19 06:46:13;;;;;;;9.85;6.10;;;;;;;;;;4987295;28;20046;-82
2022/04/19 06:49:05;;;;;;;359.27;190.90;;;;;;;;;;5002085;28;20054;-80
2022/04/19 06:51:51;;;;;;;10.10;6.72;;;;;;;;;;4986780;28;20042;-81
2022/04/19 06:54:37;;;;;;;48.63;25.75;;;;;;;;;;4987073;28;20105;-81
2022/04/19 06:57:22;;;;;;;479.20;300.80;;;;;;;;;;5008707;28;20038;-78
2022/04/19 07:00:08;;;;;;;9.10;5.20;;;;;;;;;;5008283;28;20042;-81
2022/04/19 07:02:54;;;;;;;13.82;8.43;;;;;;;;;;4988926;28;20046;-80
2022/04/19 07:06:00;;;;;;;12.48;6.55;;;;;;;;;;4994680;28;20054;-80
2022/04/19 07:08:46;;;;;;;10.57;5.90;;;;;;;;;;4986847;28;20046;-81
2022/04/19 07:11:31;;;;;;;9.70;6.38;;;;;;;;;;4986238;28;20046;-80
2022/04/19 07:14:27;;;;;;;12.50;6.78;;;;;;;;;;4994828;28;20046;-81
2022/04/19 07:17:36;;;;;;;11.25;6.53;;;;;;;;;;4990975;28;20046;-81
2022/04/19 07:26:38;;;;;;;9.85;6.00;;;;;;;;;;4985833;28;20046;-82
2022/04/19 07:29:24;;;;;;;14.05;6.75;;;;;;;;;;4999874;28;20046;-80
2022/04/19 07:32:11;;;;;;;13.15;6.55;;;;;;;;;;4993961;28;20058;-80
2022/04/19 07:35:15;;;;;;;9.18;5.85;;;;;;;;;;4986062;28;20046;-81
2022/04/19 07:38:02;;;;;;;9.52;6.20;;;;;;;;;;4986802;28;20046;-81
2022/04/19 07:41:02;;;;;;;12.18;6.82;;;;;;;;;;4973694;28;20035;-81
2022/04/19 07:43:47;;;;;;;8.57;5.30;;;;;;;;;;4983906;28;20054;-82
2022/04/19 07:46:33;;;;;;;11.05;4.40;;;;;;;;;;4985905;28;20042;-82
2022/04/19 07:49:18;;;;;;;9.45;5.22;;;;;;;;;;4984743;28;20039;-80
2022/04/19 07:52:04;;;;;;;6.13;3.78;;;;;;;;;;4984536;28;20039;-80
2022/04/19 07:54:50;;;;;;;5.72;3.22;;;;;;;;;;4984673;28;20050;-80
2022/04/19 07:57:35;;;;;;;5.82;4.05;;;;;;;;;;4985948;28;20043;-77
2022/04/19 08:00:21;;;;;;;4.82;2.85;;;;;;;;;;4986173;28;20046;-76
2022/04/19 08:03:09;;;;;;;7.32;3.80;;;;;;;;;;4986151;28;20054;-77
2022/04/19 08:05:54;;;;;;;5.40;4.10;;;;;;;;;;4991745;28;20042;-77
2022/04/19 08:08:43;;;;;;;4.35;3.03;;;;;;;;;;4989275;28;20050;-78
2022/04/19 08:11:28;;;;;;;8.75;3.67;;;;;;;;;;4998177;28;20042;-77
2022/04/19 08:14:14;;;;;;;6.57;4.15;;;;;;;;;;4990087;28;20404;-79
2022/04/19 08:16:59;;;;;;;7.35;4.35;;;;;;;;;;4990153;28;20050;-81
2022/04/19 08:19:44;;;;;;;10.02;3.90;;;;;;;;;;4989966;28;20042;-75
2022/04/19 08:22:29;;;;;;;10.40;4.45;;;;;;;;;;4988653;28;20050;-77
2022/04/19 08:25:22;;;;;;;6.00;3.40;;;;;;;;;;4990283;28;20058;-77
2022/04/19 08:28:07;;;;;;;5.05;3.53;;;;;;;;;;4998073;28;20046;-76
2022/04/19 08:30:52;;;;;;;6.32;3.83;;;;;;;;;;4988978;28;20046;-76
2022/04/19 08:33:44;;;;;;;3.65;2.63;;;;;;;;;;4989984;28;20385;-76
2022/04/19 08:36:34;;;;;;;4.00;2.92;;;;;;;;;;4988866;28;20042;-76
2022/04/19 08:39:23;;;;;;;4.93;3.40;;;;;;;;;;4997964;28;20392;-77
2022/04/19 08:42:09;;;;;;;5.10;3.10;;;;;;;;;;4989888;28;20046;-76
2022/04/19 08:44:54;;;;;;;7.03;4.40;;;;;;;;;;4983056;28;20399;-76
2022/04/19 08:47:42;;;;;;;5.82;3.50;;;;;;;;;;4997568;28;20046;-76
2022/04/19 08:50:29;;;;;;;6.60;4.30;;;;;;;;;;5003255;28;20613;-75
2022/04/19 08:59:28;;;;;;;6.70;3.95;;;;;;;;;;5003254;28;20464;-78
2022/04/19 09:02:26;;;;;;;3.78;2.80;;;;;;;;;;4997515;28;20043;-75
2022/04/19 09:05:14;;;;;;;4.93;3.20;;;;;;;;;;4996708;28;20400;-77
2022/04/19 09:07:59;;;;;;;5.43;3.10;;;;;;;;;;4997331;28;20046;-76
2022/04/19 09:10:45;;;;;;;4.20;2.90;;;;;;;;;;5003076;28;20038;-77
2022/04/19 09:13:30;;;;;;;5.53;3.00;;;;;;;;;;5007891;28;20038;-76
2022/04/19 09:16:16;;;;;;;4.65;2.72;;;;;;;;;;4995687;28;20038;-77
2022/04/19 09:19:01;;;;;;;6.55;2.47;;;;;;;;;;4996225;28;20046;-77
2022/04/19 09:21:47;;;;;;;3.03;2.30;;;;;;;;;;5003189;28;20046;-76
2022/04/19 09:24:33;;;;;;;7.03;3.38;;;;;;;;;;4997602;28;20046;-78
2022/04/19 09:27:32;;;;;;;8.18;3.83;;;;;;;;;;4996449;28;20058;-78
2022/04/19 09:30:19;;;;;;;10.63;4.45;;;;;;;;;;4997301;28;20054;-75
2022/04/19 09:33:07;;;;;;;4.20;2.20;;;;;;;;;;4996504;28;20042;-75
2022/04/19 09:36:02;;;;;;;3.63;2.60;;;;;;;;;;4996335;28;20488;-76
2022/04/19 09:38:47;;;;;;;4.88;2.58;;;;;;;;;;4988520;28;20061;-76
2022/04/19 09:41:33;;;;;;;3.67;2.60;;;;;;;;;;4995921;28;20050;-77
2022/04/19 09:44:18;;;;;;;6.85;2.75;;;;;;;;;;4996271;28;20054;-77
2022/04/19 09:47:12;;;;;;;6.15;3.30;;;;;;;;;;4996451;28;20479;-78
2022/04/19 09:50:00;;;;;;;3.13;2.45;;;;;;;;;;4996325;28;20051;-76
2022/04/19 09:52:50;;;;;;;7.90;4.70;;;;;;;;;;5002806;28;20042;-78
2022/04/19 09:55:36;;;;;;;5.20;2.83;;;;;;;;;;4995816;28;20050;-76
2022/04/19 09:58:22;;;;;;;6.18;3.92;;;;;;;;;;4996149;28;20043;-76
2022/04/19 10:10:20;;;;;;;11.88;5.13;;;;;;;;;;4996066;28;20050;-76
2022/04/19 10:13:06;;;;;;;4.88;2.92;;;;;;;;;;4996103;28;20050;-76
2022/04/19 10:15:52;;;;;;;3.03;1.90;;;;;;;;;;4995471;28;20047;-77
2022/04/19 10:18:41;;;;;;;3.92;2.70;;;;;;;;;;4996368;28;20500;-78
2022/04/19 10:21:33;;;;;;;4.53;2.08;;;;;;;;;;4995878;28;20042;-76
2022/04/19 10:24:19;;;;;;;5.45;2.65;;;;;;;;;;4996383;28;20481;-76
2022/04/19 10:27:10;;;;;;;3.88;2.25;;;;;;;;;;4995271;28;20034;-76
2022/04/19 10:29:55;;;;;;;3.70;2.28;;;;;;;;;;4995916;28;20034;-76
2022/04/19 10:32:41;;;;;;;7.85;3.30;;;;;;;;;;4996216;28;20046;-77
2022/04/19 10:35:26;;;;;;;5.10;2.85;;;;;;;;;;4995283;28;20039;-76
2022/04/19 10:38:19;;;;;;;4.65;2.92;;;;;;;;;;4996183;28;20058;-76
2022/04/19 10:41:04;;;;;;;5.32;2.40;;;;;;;;;;4996954;28;20050;-76
2022/04/19 10:44:22;;;;;;;2.75;1.92;;;;;;;;;;4999478;28;20046;-76
2022/04/19 10:47:17;;;;;;;3.47;1.77;;;;;;;;;;5002056;28;20046;-75
2022/04/19 10:50:07;;;;;;;2.97;2.10;;;;;;;;;;4995357;28;20050;-76
2022/04/19 10:52:58;;;;;;;2.70;1.90;;;;;;;;;;4996892;28;20043;-77
2022/04/19 10:56:02;;;;;;;2.70;2.10;;;;;;;;;;5002040;28;20481;-75
2022/04/19 10:58:48;;;;;;;5.18;2.20;;;;;;;;;;4995611;28;20480;-76
2022/04/19 11:01:35;;;;;;;3.72;2.38;;;;;;;;;;5001740;28;20076;-76
2022/04/19 11:04:36;;;;;;;3.35;2.30;;;;;;;;;;4994924;28;20047;-76
2022/04/19 11:07:41;;;;;;;2.63;2.00;;;;;;;;;;4996673;28;20050;-75
2022/04/19 11:10:38;;;;;;;2.50;1.48;;;;;;;;;;4995510;28;20488;-76
2022/04/19 11:13:27;;;;;;;4.38;2.58;;;;;;;;;;4995820;28;20042;-76
2022/04/19 11:16:13;;;;;;;7.88;3.83;;;;;;;;;;4995119;28;20050;-76
2022/04/19 11:18:59;;;;;;;3.95;2.70;;;;;;;;;;4994676;28;20050;-76
2022/04/19 11:21:53;;;;;;;3.40;2.03;;;;;;;;;;4994935;28;20038;-75
2022/04/19 11:24:58;;;;;;;3.22;2.20;;;;;;;;;;4995385;28;20054;-75
2022/04/19 11:27:52;;;;;;;20.45;8.00;;;;;;;;;;4997482;28;20046;-75
2022/04/19 11:31:05;;;;;;;5.10;2.13;;;;;;;;;;4995282;28;20046;-76
2022/04/19 11:33:51;;;;;;;5.47;2.50;;;;;;;;;;5001067;28;20046;-75
2022/04/19 11:36:37;;;;;;;2.60;1.80;;;;;;;;;;4986999;28;20062;-75
2022/04/19 11:48:52;;;;;;;3.10;2.25;;;;;;;;;;4994496;28;20050;-76
2022/04/19 11:51:38;;;;;;;6.13;3.22;;;;;;;;;;5000825;28;20042;-76
2022/04/19 11:54:28;;;;;;;4.28;2.25;;;;;;;;;;4994310;28;20046;-75
2022/04/19 11:57:15;;;;;;;1.95;1.55;;;;;;;;;;4994496;28;20071;-75
2022/04/19 12:00:00;;;;;;;4.47;2.30;;;;;;;;;;4994464;28;20046;-76
2022/04/19 12:02:50;;;;;;;4.90;3.38;;;;;;;;;;4994309;28;20046;-75
2022/04/19 12:05:35;;;;;;;3.53;2.17;;;;;;;;;;4994597;28;20042;-75
2022/04/19 12:08:49;;;;;;;6.10;2.28;;;;;;;;;;4994248;28;20046;-75
2022/04/19 12:11:35;;;;;;;3.75;1.92;;;;;;;;;;4981836;28;20042;-75
2022/04/19 12:14:24;;;;;;;6.97;2.45;;;;;;;;;;4993598;28;20042;-78
2022/04/19 12:17:10;;;;;;;4.57;2.20;;;;;;;;;;4993726;28;20046;-77
2022/04/19 12:20:03;;;;;;;4.60;2.22;;;;;;;;;;5000447;28;20038;-76
2022/04/19 12:22:49;;;;;;;3.38;2.22;;;;;;;;;;4994212;28;20483;-77
2022/04/19 12:25:34;;;;;;;3.85;2.17;;;;;;;;;;4994736;28;20046;-76
2022/04/19 12:28:20;;;;;;;2.72;2.00;;;;;;;;;;5000384;28;20046;-78
2022/04/19 12:31:05;;;;;;;4.07;2.22;;;;;;;;;;5000274;28;20050;-78
2022/04/19 12:33:52;;;;;;;3.63;1.95;;;;;;;;;;4993938;28;20054;-77
2022/04/19 12:36:42;;;;;;;4.20;1.80;;;;;;;;;;4994326;28;20050;-78
2022/04/19 12:39:28;;;;;;;5.65;3.05;;;;;;;;;;5000211;28;20042;-74
2022/04/19 12:42:14;;;;;;;6.03;2.33;;;;;;;;;;4994347;28;20054;-77
2022/04/19 12:45:08;;;;;;;3.30;2.00;;;;;;;;;;4993529;28;20051;-74
2022/04/19 12:47:57;;;;;;;;;;;;;;;;;;4994097;28;20042;-75
2022/04/19 12:50:42;;;;;;;3.63;2.10;;;;;;;;;;4996337;28;19913;-75
2022/04/19 12:53:28;;;;;;;5.18;2.78;;;;;;;;;;4997581;28;20042;-75
2022/04/19 12:56:26;;;;;;;3.95;2.42;;;;;;;;;;5003691;28;20400;-76
2022/04/19 12:59:11;;;;;;;5.63;2.85;;;;;;;;;;4997363;28;20046;-76
2022/04/19 13:01:57;;;;;;;3.47;2.30;;;;;;;;;;5003536;28;20043;-78
2022/04/19 13:04:43;;;;;;;6.05;2.20;;;;;;;;;;4997517;28;20046;-76
2022/04/19 13:13:42;;;;;;;3.88;2.20;;;;;;;;;;4997074;28;20050;-76
2022/04/19 13:16:27;;;;;;;4.22;2.20;;;;;;;;;;5003395;28;20054;-77
2022/04/19 13:19:14;;;;;;;7.82;2.88;;;;;;;;;;4996844;28;20050;-77
2022/04/19 13:22:01;;;;;;;6.50;2.67;;;;;;;;;;5003669;28;20042;-78
2022/04/19 13:24:46;;;;;;;3.65;1.80;;;;;;;;;;4996996;28;20495;-77
2022/04/19 13:27:35;;;;;;;7.93;2.42;;;;;;;;;;4994747;28;20380;-75
2022/04/19 13:30:21;;;;;;;3.65;2.38;;;;;;;;;;4995566;28;20488;-76
2022/04/19 13:33:06;;;;;;;7.03;3.10;;;;;;;;;;4996701;28;20039;-77
2022/04/19 13:35:52;;;;;;;5.57;3.13;;;;;;;;;;4996480;28;20046;-76
2022/04/19 13:38:38;;;;;;;5.05;2.03;;;;;;;;;;4997529;28;20042;-76
2022/04/19 13:41:23;;;;;;;3.80;2.00;;;;;;;;;;5013071;28;20042;-77
2022/04/19 13:44:12;;;;;;;4.80;2.42;;;;;;;;;;5005628;28;20439;-78
2022/04/19 13:46:59;;;;;;;2.40;1.85;;;;;;;;;;4996690;28;20034;-77
2022/04/19 13:49:43;;;;;;;2.97;2.03;;;;;;;;;;4996470;28;20050;-76
2022/04/19 13:52:33;;;;;;;2.63;1.90;;;;;;;;;;4996176;28;20050;-76
2022/04/19 13:55:19;;;;;;;4.40;2.85;;;;;;;;;;4995858;28;20050;-77
2022/04/19 13:58:04;;;;;;;2.83;1.88;;;;;;;;;;4996398;28;20038;-76
2022/04/19 14:00:50;;;;;;;3.40;1.90;;;;;;;;;;4995841;28;20043;-76
2022/04/19 14:03:35;;;;;;;4.55;2.13;;;;;;;;;;5002771;28;20046;-76
2022/04/19 14:06:22;;;;;;;4.82;1.58;;;;;;;;;;4987935;28;20050;-78
2022/04/19 14:09:08;;;;;;;3.08;1.80;;;;;;;;;;4995787;28;20042;-75
2022/04/19 14:11:54;;;;;;;2.50;1.70;;;;;;;;;;4996324;28;20046;-76
2022/04/19 14:14:42;;;;;;;5.60;2.28;;;;;;;;;;4995986;28;20038;-77
2022/04/19 14:17:27;;;;;;;4.35;3.00;;;;;;;;;;4995781;28;20419;-77
2022/04/19 14:20:13;;;;;;;5.95;2.40;;;;;;;;;;4995563;28;20042;-76
2022/04/19 14:22:58;;;;;;;3.88;2.08;;;;;;;;;;4994428;28;20050;-77
2022/04/19 14:25:44;;;;;;;4.15;2.22;;;;;;;;;;5001963;28;20050;-78
2022/04/19 14:34:37;;;;;;;6.88;2.28;;;;;;;;;;4995481;28;20043;-77
2022/04/19 14:37:23;;;;;;;3.47;2.13;;;;;;;;;;5001864;28;20054;-77
2022/04/19 14:40:09;;;;;;;3.05;2.10;;;;;;;;;;4995545;28;20046;-78
2022/04/19 14:42:55;;;;;;;4.47;2.53;;;;;;;;;;4995291;28;20058;-77
2022/04/19 14:45:40;;;;;;;5.20;2.30;;;;;;;;;;4994851;28;20054;-76
2022/04/19 14:48:26;;;;;;;3.22;2.10;;;;;;;;;;5001947;28;20062;-76
2022/04/19 14:54:17;;;;;;;6.18;2.20;;;;;;;;;;4995969;28;20042;-76
2022/04/19 14:57:02;;;;;;;5.22;2.38;;;;;;;;;;5001661;28;20496;-76
2022/04/19 14:59:48;;;;;;;2.92;2.03;;;;;;;;;;4995251;28;20042;-81
2022/04/19 15:02:34;;;;;;;3.30;1.92;;;;;;;;;;4995056;28;20039;-81
2022/04/19 15:05:19;;;;;;;5.45;2.30;;;;;;;;;;4995089;28;20054;-83
2022/04/19 15:08:05;;;;;;;3.35;2.25;;;;;;;;;;4995468;28;20046;-79
2022/04/19 15:10:51;;;;;;;3.63;2.35;;;;;;;;;;5001558;28;20042;-81
2022/04/19 15:13:36;;;;;;;6.45;2.28;;;;;;;;;;4994537;28;20042;-80
2022/04/19 15:16:21;;;;;;;7.47;2.78;;;;;;;;;;4994635;28;20035;-84
2022/04/19 15:19:07;;;;;;;5.13;1.90;;;;;;;;;;5001649;28;20046;-83
2022/04/19 15:21:53;;;;;;;4.82;2.30;;;;;;;;;;4994684;28;20050;-83
2022/04/19 15:24:38;;;;;;;10.02;3.70;;;;;;;;;;4994994;28;20050;-83
2022/04/19 15:27:26;;;;;;;6.25;3.67;;;;;;;;;;4995359;28;20054;-83
2022/04/19 15:30:12;;;;;;;3.47;2.25;;;;;;;;;;4997399;28;20089;-83
2022/04/19 15:32:57;;;;;;;3.72;2.30;;;;;;;;;;4983314;28;20054;-83
2022/04/19 15:35:43;;;;;;;5.00;2.40;;;;;;;;;;4996454;28;20392;-83
2022/04/19 15:38:28;;;;;;;8.85;3.90;;;;;;;;;;4995230;28;20050;-82
2022/04/19 15:41:14;;;;;;;8.30;3.60;;;;;;;;;;4994501;28;20050;-82
2022/04/19 15:43:59;;;;;;;4.97;2.55;;;;;;;;;;4996148;28;20139;-81
2022/04/19 15:46:45;;;;;;;7.03;2.65;;;;;;;;;;5000407;28;20042;-82
2022/04/19 15:49:31;;;;;;;4.78;2.40;;;;;;;;;;4996565;28;20047;-85
2022/04/19 15:52:16;;;;;;;8.10;2.67;;;;;;;;;;4996510;28;20485;-83
2022/04/19 15:55:02;;;;;;;4.38;2.78;;;;;;;;;;4996239;28;20038;-81
2022/04/19 15:57:47;;;;;;;6.18;2.97;;;;;;;;;;4999384;28;20054;-78
2022/04/19 16:00:33;;;;;;;7.00;3.80;;;;;;;;;;5007573;28;20042;-80
2022/04/19 16:03:21;;;;;;;5.72;3.53;;;;;;;;;;4996953;28;20042;-82
2022/04/19 16:06:08;;;;;;;9.60;4.85;;;;;;;;;;5001309;28;20046;-78
2022/04/19 16:08:54;;;;;;;7.05;2.97;;;;;;;;;;4995174;28;20046;-80
2022/04/19 16:11:39;;;;;;;3.38;2.20;;;;;;;;;;4995097;28;20050;-79
2022/04/19 16:14:25;;;;;;;1.85;1.48;;;;;;;;;;4995301;28;20046;-78
2022/04/19 16:23:21;;;;;;;5.05;3.13;;;;;;;;;;4993778;28;20058;-81
2022/04/19 16:26:06;;;;;;;7.60;4.18;;;;;;;;;;4997285;28;20050;-83
2022/04/19 16:28:52;;;;;;;7.82;4.65;;;;;;;;;;4998189;28;20050;-83
2022/04/19 16:31:38;;;;;;;7.65;5.00;;;;;;;;;;4997801;28;20046;-81
2022/04/19 16:34:24;;;;;;;9.23;5.30;;;;;;;;;;4997790;28;20034;-81
2022/04/19 16:37:11;;;;;;;10.60;4.55;;;;;;;;;;4997805;28;20058;-81
2022/04/19 16:39:56;;;;;;;9.73;5.18;;;;;;;;;;4997739;28;20492;-84
2022/04/19 16:42:42;;;;;;;10.23;5.07;;;;;;;;;;4997627;28;20391;-83
2022/04/19 16:45:28;;;;;;;9.20;6.10;;;;;;;;;;4997007;28;20054;-76
2022/04/19 16:48:13;;;;;;;12.77;7.88;;;;;;;;;;4996842;28;20042;-75
2022/04/19 16:50:58;;;;;;;10.00;6.32;;;;;;;;;;5004050;28;20046;-77
2022/04/19 16:53:44;;;;;;;7.13;4.03;;;;;;;;;;4997986;28;20046;-78
2022/04/19 16:56:30;;;;;;;11.05;5.90;;;;;;;;;;5002987;28;20054;-76
2022/04/19 16:59:15;;;;;;;6.85;4.28;;;;;;;;;;4997950;28;20047;-76
2022/04/19 17:02:00;;;;;;;7.05;3.90;;;;;;;;;;4998411;28;20050;-76
2022/04/19 17:04:46;;;;;;;15.90;8.27;;;;;;;;;;5004665;28;20488;-76
2022/04/19 17:07:32;;;;;;;39.00;21.98;;;;;;;;;;5005030;28;20055;-76
2022/04/19 17:10:17;;;;;;;21.80;15.35;;;;;;;;;;5004476;28;20042;-76
2022/04/19 17:13:04;;;;;;;7.47;4.60;;;;;;;;;;4989269;28;20042;-75
2022/04/19 17:15:48;;;;;;;7.57;5.03;;;;;;;;;;5005521;28;20043;-76
2022/04/19 17:18:34;;;;;;;9.95;5.43;;;;;;;;;;4999513;28;20046;-77
2022/04/19 17:21:20;;;;;;;8.40;4.85;;;;;;;;;;4997334;28;20046;-76
2022/04/19 17:24:06;;;;;;;11.30;7.30;;;;;;;;;;4997000;28;20054;-76
2022/04/19 17:26:53;;;;;;;16.15;10.02;;;;;;;;;;4997176;28;20486;-75
2022/04/19 17:29:39;;;;;;;7.43;3.78;;;;;;;;;;4998501;28;20050;-77
2022/04/19 17:32:29;;;;;;;12.98;7.65;;;;;;;;;;4997439;28;20043;-75
2022/04/19 17:35:14;;;;;;;14.07;7.50;;;;;;;;;;4997529;28;20400;-76
2022/04/19 17:38:01;;;;;;;19.35;11.50;;;;;;;;;;4999359;28;20046;-76
2022/04/19 17:40:47;;;;;;;16.73;10.27;;;;;;;;;;5005091;28;20495;-76
2022/04/19 17:43:33;;;;;;;18.63;13.10;;;;;;;;;;4996699;28;20395;-76
2022/04/19 17:46:18;;;;;;;23.42;14.20;;;;;;;;;;4996617;28;20042;-77
2022/04/19 17:49:04;;;;;;;27.25;18.45;;;;;;;;;;5003179;28;20042;-77